Aviation Digital Data Service (ADDS)

Output produced by METARs form (1359 UTC 25 September 2016)
found at http://aviationweather.gov/adds/metars/
 
KACK 251120Z 2512/2612 35016KT P6SM FEW250 
     FM260400 35009KT P6SM FEW250